createdAt,value
2017-10-28T00:02:02.282Z,3.53
2017-10-28T00:04:36.877Z,3.70
2017-10-28T00:07:11.271Z,3.60
2017-10-28T00:09:46.455Z,3.13
2017-10-28T00:12:21.024Z,2.60
2017-10-28T00:14:55.487Z,2.80
2017-10-28T00:17:29.976Z,3.27
2017-10-28T00:22:45.395Z,2.40
2017-10-28T00:25:21.783Z,3.00
2017-10-28T00:27:56.814Z,2.00
2017-10-28T00:30:36.499Z,1.93
2017-10-28T00:33:16.499Z,1.77
2017-10-28T00:35:56.438Z,2.47
2017-10-28T00:38:31.220Z,1.80
2017-10-28T00:41:05.623Z,1.90
2017-10-28T00:43:40.256Z,2.00
2017-10-28T00:46:14.767Z,1.93
2017-10-28T00:48:49.358Z,1.47
2017-10-28T00:51:23.806Z,1.30
2017-10-28T00:53:59.155Z,1.10
2017-10-28T00:56:33.706Z,1.43
2017-10-28T00:59:08.099Z,1.13
2017-10-28T01:01:42.518Z,1.77
2017-10-28T01:04:17.074Z,1.37
2017-10-28T01:06:51.547Z,1.53
2017-10-28T01:09:26.191Z,1.30
2017-10-28T01:12:00.604Z,1.37
2017-10-28T01:14:35.251Z,1.73
2017-10-28T01:17:10.362Z,1.30
2017-10-28T01:19:44.907Z,1.27
2017-10-28T01:22:19.390Z,1.37
2017-10-28T01:24:54.783Z,1.43
2017-10-28T01:27:29.311Z,1.20
2017-10-28T01:32:44.306Z,1.60
2017-10-28T01:35:18.763Z,1.60
2017-10-28T01:37:53.274Z,1.23
2017-10-28T01:40:27.794Z,1.43
2017-10-28T01:43:02.424Z,1.20
2017-10-28T01:45:36.946Z,1.40
2017-10-28T01:48:11.543Z,1.40
2017-10-28T01:50:45.934Z,1.50
2017-10-28T01:53:20.457Z,1.30
2017-10-28T01:55:54.834Z,1.50
2017-10-28T01:58:29.351Z,1.43
2017-10-28T02:01:03.791Z,1.33
2017-10-28T02:03:38.443Z,1.60
2017-10-28T02:06:12.848Z,1.10
2017-10-28T02:08:47.401Z,1.17
2017-10-28T02:11:21.812Z,1.10
2017-10-28T02:13:56.365Z,1.50
2017-10-28T02:16:30.434Z,1.30
2017-10-28T02:19:05.059Z,1.80
2017-10-28T02:21:39.472Z,1.83
2017-10-28T02:24:14.047Z,1.50
2017-10-28T02:26:48.465Z,2.20
2017-10-28T02:29:22.971Z,1.60
2017-10-28T02:31:57.490Z,1.23
2017-10-28T02:34:32.030Z,1.77
2017-10-28T02:37:06.224Z,1.50
2017-10-28T02:39:40.647Z,1.83
2017-10-28T02:42:15.042Z,1.50
2017-10-28T02:44:49.636Z,1.23
2017-10-28T02:47:24.160Z,1.53
2017-10-28T02:49:58.543Z,1.47
2017-10-28T02:52:32.762Z,1.10
2017-10-28T02:55:14.758Z,1.33
2017-10-28T02:57:49.730Z,1.43
2017-10-28T03:00:24.976Z,1.57
2017-10-28T03:03:00.160Z,1.30
2017-10-28T03:05:36.670Z,1.07
2017-10-28T03:08:11.170Z,1.10
2017-10-28T03:10:45.605Z,1.23
2017-10-28T03:13:19.971Z,1.33
2017-10-28T03:15:54.462Z,1.30
2017-10-28T03:18:29.389Z,1.10
2017-10-28T03:21:04.012Z,1.00
2017-10-28T03:23:38.630Z,1.40
2017-10-28T03:26:13.105Z,1.13
2017-10-28T03:28:47.573Z,1.20
2017-10-28T03:31:21.984Z,1.53
2017-10-28T03:33:56.699Z,1.40
2017-10-28T03:36:31.341Z,1.60
2017-10-28T03:39:06.218Z,1.70
2017-10-28T03:41:40.842Z,1.70
2017-10-28T03:44:15.919Z,2.20
2017-10-28T03:46:50.487Z,2.03
2017-10-28T03:49:24.971Z,1.87
2017-10-28T03:51:59.405Z,1.63
2017-10-28T03:54:34.075Z,2.07
2017-10-28T03:57:07.951Z,2.17
2017-10-28T03:59:42.477Z,2.10
2017-10-28T04:02:17.047Z,1.73
2017-10-28T04:04:51.430Z,2.83
2017-10-28T04:07:25.816Z,2.53
2017-10-28T04:10:00.291Z,1.73
2017-10-28T04:12:34.830Z,1.97
2017-10-28T04:15:14.697Z,1.80
2017-10-28T04:17:49.060Z,1.80
2017-10-28T04:20:23.760Z,1.90
2017-10-28T04:22:58.244Z,1.70
2017-10-28T04:25:33.571Z,1.50
2017-10-28T04:28:08.143Z,1.83
2017-10-28T04:30:42.532Z,1.93
2017-10-28T04:33:16.954Z,2.07
2017-10-28T04:35:51.338Z,3.37
2017-10-28T04:38:25.951Z,3.93
2017-10-28T04:41:00.957Z,4.07
2017-10-28T04:43:35.518Z,5.10
2017-10-28T04:46:09.993Z,4.53
2017-10-28T04:48:46.427Z,4.50
2017-10-28T04:51:20.884Z,4.83
2017-10-28T04:53:55.388Z,6.43
2017-10-28T04:56:30.242Z,5.67
2017-10-28T04:59:04.813Z,5.07
2017-10-28T05:01:39.314Z,6.97
2017-10-28T05:04:13.790Z,6.87
2017-10-28T05:06:48.267Z,6.27
2017-10-28T05:09:22.978Z,7.00
2017-10-28T05:11:57.389Z,8.80
2017-10-28T05:14:31.976Z,8.40
2017-10-28T05:17:06.484Z,8.37
2017-10-28T05:19:40.983Z,9.37
2017-10-28T05:22:15.435Z,8.27
2017-10-28T05:24:50.027Z,8.40
2017-10-28T05:27:24.435Z,8.23
2017-10-28T05:29:59.063Z,7.90
2017-10-28T05:32:33.499Z,6.50
2017-10-28T05:35:14.657Z,7.73
2017-10-28T05:37:49.058Z,6.90
2017-10-28T05:40:23.519Z,6.73
2017-10-28T05:42:58.058Z,7.63
2017-10-28T05:45:32.188Z,9.63
2017-10-28T05:48:06.286Z,7.80
2017-10-28T05:50:40.777Z,7.73
2017-10-28T05:53:15.469Z,8.27
2017-10-28T05:55:50.315Z,9.47
2017-10-28T05:58:24.927Z,7.60
2017-10-28T06:00:59.151Z,7.60
2017-10-28T06:03:33.737Z,8.73
2017-10-28T06:06:08.238Z,8.97
2017-10-28T06:08:42.739Z,9.43
2017-10-28T06:11:17.422Z,10.33
2017-10-28T06:13:52.059Z,8.93
2017-10-28T06:16:26.607Z,9.23
2017-10-28T06:19:01.865Z,8.37
2017-10-28T06:21:36.538Z,9.80
2017-10-28T06:24:11.367Z,9.50
2017-10-28T06:26:45.812Z,10.00
2017-10-28T06:29:20.580Z,8.77
2017-10-28T06:31:55.011Z,10.50
2017-10-28T06:34:29.519Z,10.57
2017-10-28T06:37:03.959Z,9.97
2017-10-28T06:39:38.556Z,7.77
2017-10-28T06:42:13.147Z,8.97
2017-10-28T06:44:47.729Z,8.77
2017-10-28T06:47:22.108Z,8.70
2017-10-28T06:49:56.592Z,8.80
2017-10-28T06:52:31.024Z,8.70
2017-10-28T06:55:08.565Z,9.43
2017-10-28T06:57:43.126Z,9.30
2017-10-28T07:00:17.572Z,9.13
2017-10-28T07:02:52.191Z,10.60
2017-10-28T07:05:27.021Z,9.27
2017-10-28T07:08:01.077Z,9.93
2017-10-28T07:10:35.668Z,9.53
2017-10-28T07:13:10.291Z,10.27
2017-10-28T07:15:44.809Z,9.87
2017-10-28T07:18:19.500Z,11.30
2017-10-28T07:20:53.996Z,10.73
2017-10-28T07:23:28.638Z,9.47
2017-10-28T07:26:03.179Z,9.00
2017-10-28T07:28:37.600Z,9.97
2017-10-28T07:31:12.115Z,9.10
2017-10-28T07:33:46.645Z,8.90
2017-10-28T07:36:21.075Z,10.10
2017-10-28T07:38:55.683Z,10.10
2017-10-28T07:41:30.082Z,8.80
2017-10-28T07:44:04.555Z,9.83
2017-10-28T07:46:38.956Z,10.20
2017-10-28T07:49:13.376Z,10.10
2017-10-28T07:51:48.828Z,9.47
2017-10-28T07:54:23.518Z,10.40
2017-10-28T07:56:57.930Z,10.53
2017-10-28T07:59:32.567Z,10.73
2017-10-28T08:02:07.067Z,10.50
2017-10-28T08:04:41.585Z,9.40
2017-10-28T08:07:16.120Z,9.60
2017-10-28T08:09:50.734Z,10.23
2017-10-28T08:12:25.354Z,11.07
2017-10-28T08:14:59.894Z,11.20
2017-10-28T08:17:34.343Z,10.37
2017-10-28T08:20:09.168Z,10.80
2017-10-28T08:22:43.806Z,11.47
2017-10-28T08:25:18.303Z,12.27
2017-10-28T08:27:52.775Z,10.70
2017-10-28T08:30:27.211Z,11.40
2017-10-28T08:33:01.882Z,10.13
2017-10-28T08:35:37.383Z,11.10
2017-10-28T08:38:13.976Z,11.10
2017-10-28T08:40:48.706Z,12.63
2017-10-28T08:43:23.343Z,10.70
2017-10-28T08:45:57.754Z,11.30
2017-10-28T08:48:32.187Z,9.57
2017-10-28T08:51:07.050Z,10.83
2017-10-28T08:53:41.724Z,10.97
2017-10-28T08:56:21.590Z,11.10
2017-10-28T08:59:01.162Z,10.27
2017-10-28T09:01:38.399Z,11.30
2017-10-28T09:04:12.771Z,11.40
2017-10-28T09:06:47.158Z,12.17
2017-10-28T09:09:21.694Z,10.43
2017-10-28T09:11:56.159Z,11.37
2017-10-28T09:14:30.722Z,9.90
2017-10-28T09:17:05.314Z,10.93
2017-10-28T09:19:39.930Z,9.33
2017-10-28T09:22:13.761Z,10.20
2017-10-28T09:24:48.277Z,10.17
2017-10-28T09:27:23.299Z,10.07
2017-10-28T09:29:57.763Z,10.03
2017-10-28T09:32:32.258Z,11.20
2017-10-28T09:35:14.446Z,10.33
2017-10-28T09:37:48.920Z,8.47
2017-10-28T09:40:23.376Z,10.93
2017-10-28T09:42:57.794Z,10.90
2017-10-28T09:45:32.309Z,9.00
2017-10-28T09:48:06.824Z,9.57
2017-10-28T09:50:41.768Z,10.17
2017-10-28T09:53:16.259Z,9.13
2017-10-28T09:55:50.727Z,10.07
2017-10-28T09:58:25.114Z,8.73
2017-10-28T10:00:59.655Z,9.63
2017-10-28T10:03:34.304Z,9.30
2017-10-28T10:06:13.018Z,8.70
2017-10-28T10:08:48.033Z,9.17
2017-10-28T10:11:23.549Z,9.00
2017-10-28T10:13:58.104Z,7.50
2017-10-28T10:16:32.784Z,8.63
2017-10-28T10:19:07.414Z,8.10
2017-10-28T10:21:41.926Z,8.00
2017-10-28T10:24:16.450Z,8.23
2017-10-28T10:26:50.920Z,7.43
2017-10-28T10:29:25.310Z,7.40
2017-10-28T10:31:59.708Z,7.43
2017-10-28T10:34:34.164Z,8.63
2017-10-28T10:37:08.551Z,8.90
2017-10-28T10:39:43.171Z,8.13
2017-10-28T10:42:17.652Z,8.00
2017-10-28T10:44:52.135Z,8.70
2017-10-28T10:47:27.538Z,7.30
2017-10-28T10:50:02.153Z,7.17
2017-10-28T10:52:36.674Z,7.50
2017-10-28T10:55:14.759Z,7.33
2017-10-28T10:57:49.306Z,6.00
2017-10-28T11:00:23.806Z,5.70
2017-10-28T11:02:58.327Z,5.87
2017-10-28T11:05:32.883Z,6.10
2017-10-28T11:08:08.010Z,6.40
2017-10-28T11:10:42.470Z,5.13
2017-10-28T11:13:16.999Z,6.40
2017-10-28T11:15:51.382Z,6.10
2017-10-28T11:18:25.904Z,6.33
2017-10-28T11:21:00.537Z,6.00
2017-10-28T11:23:35.078Z,5.77
2017-10-28T11:26:09.486Z,5.57
2017-10-28T11:28:43.920Z,6.23
2017-10-28T11:31:18.339Z,6.40
2017-10-28T11:33:52.811Z,6.60
2017-10-28T11:36:27.366Z,5.10
2017-10-28T11:39:01.974Z,6.03
2017-10-28T11:41:36.391Z,4.90
2017-10-28T11:44:10.905Z,5.80
2017-10-28T11:46:45.288Z,4.50
2017-10-28T11:49:19.908Z,3.87
2017-10-28T11:51:54.331Z,5.00
2017-10-28T11:54:28.769Z,3.60
2017-10-28T11:57:03.326Z,3.60
2017-10-28T11:59:37.914Z,4.53
2017-10-28T12:02:12.382Z,4.83
2017-10-28T12:04:46.878Z,5.00
2017-10-28T12:07:21.310Z,4.93
2017-10-28T12:09:55.874Z,5.40
2017-10-28T12:12:30.314Z,4.90
2017-10-28T12:17:48.359Z,4.17
2017-10-28T12:20:22.999Z,4.80
2017-10-28T12:22:57.626Z,5.00
2017-10-28T12:25:32.171Z,3.70
2017-10-28T12:28:06.804Z,4.27
2017-10-28T12:30:41.324Z,4.20
2017-10-28T12:33:15.805Z,3.37
2017-10-28T12:35:50.264Z,3.50
2017-10-28T12:38:24.814Z,3.67
2017-10-28T12:40:59.215Z,3.13
2017-10-28T12:43:33.620Z,3.30
2017-10-28T12:46:08.114Z,3.63
2017-10-28T12:48:42.671Z,2.80
2017-10-28T12:51:17.631Z,2.67
2017-10-28T12:53:52.181Z,3.57
2017-10-28T12:56:26.580Z,3.27
2017-10-28T12:59:01.181Z,3.03
2017-10-28T13:01:35.966Z,2.80
2017-10-28T13:04:10.531Z,3.00
2017-10-28T13:06:44.998Z,2.77
2017-10-28T13:09:19.590Z,2.83
2017-10-28T13:11:54.066Z,2.47
2017-10-28T13:14:28.657Z,2.57
2017-10-28T13:17:03.104Z,2.30
2017-10-28T13:19:37.678Z,2.20
2017-10-28T13:22:12.155Z,1.97
2017-10-28T13:24:46.724Z,2.47
2017-10-28T13:27:22.322Z,1.73
2017-10-28T13:29:56.933Z,1.73
2017-10-28T13:32:31.302Z,1.73
2017-10-28T13:35:15.079Z,1.87
2017-10-28T13:37:49.519Z,1.80
2017-10-28T13:40:23.916Z,2.10
2017-10-28T13:42:58.544Z,2.30
2017-10-28T13:45:32.923Z,2.43
2017-10-28T13:48:07.520Z,2.20
2017-10-28T13:50:42.054Z,1.83
2017-10-28T13:53:16.635Z,2.03
2017-10-28T13:55:51.107Z,2.40
2017-10-28T13:58:26.335Z,2.00
2017-10-28T14:01:00.895Z,1.77
2017-10-28T14:03:36.077Z,2.00
2017-10-28T14:06:11.491Z,2.27
2017-10-28T14:08:51.243Z,1.93
2017-10-28T14:11:25.830Z,1.50
2017-10-28T14:14:00.374Z,2.53
2017-10-28T14:16:34.903Z,2.30
2017-10-28T14:19:09.569Z,2.30
2017-10-28T14:21:44.211Z,3.27
2017-10-28T14:24:18.726Z,2.40
2017-10-28T14:26:53.193Z,2.40
2017-10-28T14:29:27.791Z,2.13
2017-10-28T14:32:02.224Z,2.77
2017-10-28T14:34:36.816Z,2.83
2017-10-28T14:37:11.242Z,3.07
2017-10-28T14:39:45.758Z,2.90
2017-10-28T14:42:20.263Z,2.93
2017-10-28T14:44:54.652Z,2.93
2017-10-28T14:47:29.158Z,3.00
2017-10-28T14:52:44.200Z,3.60
2017-10-28T14:55:18.742Z,3.60
2017-10-28T14:57:53.346Z,2.97
2017-10-28T15:00:27.750Z,3.70
2017-10-28T15:03:02.804Z,3.53
2017-10-28T15:05:37.442Z,4.13
2017-10-28T15:08:12.062Z,4.90
2017-10-28T15:10:46.478Z,3.67
2017-10-28T15:13:20.972Z,5.03
2017-10-28T15:15:55.383Z,4.47
2017-10-28T15:18:29.836Z,5.60
2017-10-28T15:21:04.383Z,4.60
2017-10-28T15:23:38.818Z,5.57
2017-10-28T15:26:13.971Z,5.63
2017-10-28T15:28:48.479Z,3.97
2017-10-28T15:31:23.334Z,4.47
2017-10-28T15:33:57.720Z,4.23
2017-10-28T15:36:32.321Z,4.20
2017-10-28T15:39:06.722Z,3.33
2017-10-28T15:41:41.169Z,3.90
2017-10-28T15:44:15.718Z,3.57
2017-10-28T15:46:50.215Z,3.50
2017-10-28T15:49:24.746Z,3.10
2017-10-28T15:51:59.240Z,3.27
2017-10-28T15:54:33.732Z,3.50
2017-10-28T15:57:08.187Z,3.27
2017-10-28T15:59:42.607Z,3.20
2017-10-28T16:02:17.387Z,3.30
2017-10-28T16:04:51.837Z,3.23
2017-10-28T16:07:26.247Z,2.57
2017-10-28T16:10:00.827Z,2.97
2017-10-28T16:12:35.285Z,2.90
2017-10-28T16:15:09.659Z,2.80
2017-10-28T16:17:43.926Z,2.70
2017-10-28T16:20:18.306Z,2.83
2017-10-28T16:22:52.820Z,2.33
2017-10-28T16:25:27.286Z,2.60
2017-10-28T16:28:01.940Z,2.07
2017-10-28T16:30:36.398Z,2.87
2017-10-28T16:33:11.246Z,2.50
2017-10-28T16:35:45.920Z,2.10
2017-10-28T16:38:20.426Z,1.70
2017-10-28T16:40:55.075Z,2.17
2017-10-28T16:43:29.632Z,2.17
2017-10-28T16:46:04.972Z,2.23
2017-10-28T16:48:39.554Z,2.70
2017-10-28T16:51:13.935Z,2.70
2017-10-28T16:53:48.523Z,2.37
2017-10-28T16:56:23.008Z,2.00
2017-10-28T16:58:57.307Z,2.33
2017-10-28T17:01:32.096Z,3.03
2017-10-28T17:04:06.824Z,3.03
2017-10-28T17:06:41.636Z,2.20
2017-10-28T17:09:16.255Z,2.40
2017-10-28T17:11:50.691Z,2.20
2017-10-28T17:14:25.373Z,3.73
2017-10-28T17:16:59.623Z,3.03
2017-10-28T17:19:35.003Z,3.50
2017-10-28T17:22:09.659Z,3.57
2017-10-28T17:24:44.150Z,3.00
2017-10-28T17:27:18.570Z,3.00
2017-10-28T17:29:53.195Z,3.17
2017-10-28T17:32:27.788Z,3.83
2017-10-28T17:35:02.299Z,2.93
2017-10-28T17:37:36.774Z,3.07
2017-10-28T17:40:15.754Z,3.30
2017-10-28T17:42:50.084Z,2.87
2017-10-28T17:45:24.610Z,3.87
2017-10-28T17:47:59.131Z,5.00
2017-10-28T17:50:33.551Z,3.93
2017-10-28T17:53:07.794Z,3.97
2017-10-28T17:55:42.322Z,4.73
2017-10-28T17:58:17.872Z,3.60
2017-10-28T18:00:52.345Z,3.87
2017-10-28T18:03:28.103Z,4.60
2017-10-28T18:06:02.651Z,3.80
2017-10-28T18:08:37.275Z,4.57
2017-10-28T18:11:11.532Z,4.27
2017-10-28T18:13:47.071Z,4.17
2017-10-28T18:16:21.715Z,4.30
2017-10-28T18:18:56.134Z,4.23
2017-10-28T18:21:30.588Z,3.77
2017-10-28T18:24:05.124Z,4.07
2017-10-28T18:26:40.583Z,4.03
2017-10-28T18:29:15.443Z,3.73
2017-10-28T18:31:50.027Z,4.00
2017-10-28T18:34:24.544Z,4.23
2017-10-28T18:36:59.010Z,3.53
2017-10-28T18:39:33.603Z,3.03
2017-10-28T18:42:08.173Z,3.10
2017-10-28T18:44:42.734Z,4.50
2017-10-28T18:47:17.390Z,3.03
2017-10-28T18:49:52.023Z,3.47
2017-10-28T18:52:26.284Z,3.07
2017-10-28T18:55:00.670Z,2.93
2017-10-28T18:57:35.160Z,3.50
2017-10-28T19:00:13.526Z,3.60
2017-10-28T19:02:47.998Z,3.50
2017-10-28T19:05:22.392Z,4.20
2017-10-28T19:07:56.993Z,3.20
2017-10-28T19:10:31.459Z,3.20
2017-10-28T19:13:05.915Z,3.13
2017-10-28T19:15:41.173Z,3.33
2017-10-28T19:18:15.603Z,3.60
2017-10-28T19:20:50.064Z,3.20
2017-10-28T19:23:24.615Z,3.20
2017-10-28T19:25:59.138Z,2.90
2017-10-28T19:28:33.529Z,2.90
2017-10-28T19:31:07.938Z,3.10
2017-10-28T19:33:42.563Z,3.43
2017-10-28T19:36:17.230Z,3.60
2017-10-28T19:38:51.728Z,3.57
2017-10-28T19:41:26.823Z,3.60
2017-10-28T19:44:01.279Z,2.93
2017-10-28T19:46:35.681Z,4.10
2017-10-28T19:49:10.159Z,3.10
2017-10-28T19:51:44.839Z,2.83
2017-10-28T19:54:19.154Z,2.83
2017-10-28T19:56:53.570Z,3.60
2017-10-28T19:59:28.308Z,3.20
2017-10-28T20:02:02.712Z,3.43
2017-10-28T20:04:37.345Z,2.80
2017-10-28T20:07:11.762Z,3.27
2017-10-28T20:09:46.398Z,3.17
2017-10-28T20:12:20.847Z,3.90
2017-10-28T20:14:55.385Z,3.30
2017-10-28T20:17:30.131Z,4.17
2017-10-28T20:22:46.402Z,4.20
2017-10-28T20:25:21.022Z,3.70
2017-10-28T20:27:55.646Z,3.70
2017-10-28T20:30:30.055Z,5.30
2017-10-28T20:33:04.731Z,3.23
2017-10-28T20:35:39.172Z,3.40
2017-10-28T20:38:13.704Z,3.10
2017-10-28T20:40:48.004Z,3.10
2017-10-28T20:43:22.614Z,3.00
2017-10-28T20:45:58.034Z,3.90
2017-10-28T20:48:33.768Z,3.73
2017-10-28T20:51:08.491Z,3.30
2017-10-28T20:53:43.013Z,3.67
2017-10-28T20:56:17.780Z,3.60
2017-10-28T20:58:52.203Z,3.20
2017-10-28T21:01:26.591Z,3.23
2017-10-28T21:04:01.189Z,4.90
2017-10-28T21:06:36.031Z,3.20
2017-10-28T21:09:12.230Z,3.93
2017-10-28T21:11:46.618Z,4.10
2017-10-28T21:14:21.245Z,3.30
2017-10-28T21:16:55.727Z,2.93
2017-10-28T21:19:30.350Z,3.33
2017-10-28T21:22:04.765Z,3.10
2017-10-28T21:24:39.522Z,3.57
2017-10-28T21:27:14.155Z,3.50
2017-10-28T21:29:48.639Z,3.40
2017-10-28T21:32:23.120Z,2.73
2017-10-28T21:34:57.689Z,3.63
2017-10-28T21:37:32.241Z,3.10
2017-10-28T21:40:11.513Z,3.60
2017-10-28T21:42:46.673Z,3.53
2017-10-28T21:45:22.238Z,3.57
2017-10-28T21:47:57.842Z,3.37
2017-10-28T21:50:32.266Z,3.13
2017-10-28T21:53:06.860Z,3.00
2017-10-28T21:55:41.760Z,3.80
2017-10-28T21:58:16.175Z,2.60
2017-10-28T22:00:50.692Z,3.07
2017-10-28T22:03:25.152Z,3.50
2017-10-28T22:05:59.732Z,3.67
2017-10-28T22:08:34.362Z,2.80
2017-10-28T22:11:08.891Z,7.00
2017-10-28T22:13:43.475Z,4.30
2017-10-28T22:16:19.087Z,3.23
2017-10-28T22:18:53.713Z,3.27
2017-10-28T22:21:28.217Z,4.07
2017-10-28T22:24:02.740Z,4.23
2017-10-28T22:26:37.234Z,3.83
2017-10-28T22:29:11.766Z,3.97
2017-10-28T22:31:48.278Z,6.70
2017-10-28T22:34:23.626Z,5.57
2017-10-28T22:36:58.267Z,3.43
2017-10-28T22:39:32.754Z,4.10
2017-10-28T22:42:07.203Z,3.10
2017-10-28T22:44:41.722Z,3.03
2017-10-28T22:47:16.167Z,2.70
2017-10-28T22:49:50.687Z,3.40
2017-10-28T22:52:25.078Z,4.67
2017-10-28T22:54:59.686Z,2.93
2017-10-28T22:57:33.762Z,2.50
2017-10-28T23:00:15.091Z,2.73
2017-10-28T23:02:49.551Z,2.53
2017-10-28T23:05:24.033Z,2.90
2017-10-28T23:07:58.657Z,2.47
2017-10-28T23:10:33.100Z,2.63
2017-10-28T23:13:07.539Z,2.70
2017-10-28T23:15:42.105Z,3.30
2017-10-28T23:18:16.646Z,3.07
2017-10-28T23:20:51.110Z,2.70
2017-10-28T23:23:25.659Z,1.93
2017-10-28T23:26:00.196Z,2.03
2017-10-28T23:28:34.636Z,2.20
2017-10-28T23:31:09.067Z,2.00
2017-10-28T23:33:43.699Z,3.20
2017-10-28T23:36:18.102Z,2.00
2017-10-28T23:38:52.586Z,2.20
2017-10-28T23:41:26.991Z,1.80
2017-10-28T23:44:01.510Z,2.30
2017-10-28T23:46:35.965Z,2.23
2017-10-28T23:49:10.459Z,2.10
2017-10-28T23:51:44.942Z,1.87
2017-10-28T23:54:19.566Z,4.47
2017-10-28T23:56:54.004Z,1.70
2017-10-28T23:59:28.549Z,1.50
